VA73 weather

Mazza Airport
Matoaca, Virginia, United States

Public forecast

Using degrees Fahrenheit for public forecast. Weather courtesy of forecast.io.

Closest aviation weather report (METAR) to Mazza Airport

Closest report is Dinwiddie County Airport, 3.7 nm (6.9 km) S. Retrieved 2019/12/15 20:35 UTC (7 minutes ago):

KPTB 152035Z AUTO 25012G15KT 10SM CLR 14/00 A3006 RMK AO2 T01360000

Closest aviation forecast (TAF) to Mazza Airport

Closest forecast is Richmond International Airport, 17.7 nm (32.8 km) NNE. Retrieved 2019/12/15 18:42 UTC (2 hours ago):

TAF KRIC 151739Z 1518/1618 26011G18KT P6SM SKC FM152200 25005KT P6SM SKC FM160100 VRB03KT P6SM BKN120 FM161200 10004KT P6SM OVC045 FM161500 21006KT P6SM OVC025